createdAt,value
2018-09-05T00:00:20.306Z,84.47
2018-09-05T00:01:20.247Z,84.33
2018-09-05T00:02:20.257Z,84.27
2018-09-05T00:03:20.313Z,84.77
2018-09-05T00:04:20.324Z,84.87
2018-09-05T00:05:20.207Z,85.28
2018-09-05T00:06:20.198Z,85.58
2018-09-05T00:07:20.207Z,85.38
2018-09-05T00:08:20.178Z,85.22
2018-09-05T00:09:20.195Z,85.52
2018-09-05T00:10:20.156Z,85.52
2018-09-05T00:11:20.193Z,85.62
2018-09-05T00:12:20.145Z,85.11
2018-09-05T00:13:20.131Z,85.11
2018-09-05T00:14:20.162Z,84.87
2018-09-05T00:15:20.105Z,84.97
2018-09-05T00:16:20.104Z,84.97
2018-09-05T00:17:20.097Z,84.87
2018-09-05T00:18:20.087Z,84.57
2018-09-05T00:19:20.134Z,84.47
2018-09-05T00:20:20.051Z,84.37
2018-09-05T00:21:20.050Z,83.86
2018-09-05T00:22:20.076Z,84.47
2018-09-05T00:23:20.017Z,84.17
2018-09-05T00:24:20.007Z,83.76
2018-09-05T00:25:20.008Z,83.86
2018-09-05T00:26:20.042Z,84.06
2018-09-05T00:27:19.996Z,84.57
2018-09-05T00:28:19.959Z,84.27
2018-09-05T00:29:19.965Z,84.77
2018-09-05T00:30:19.946Z,85.62
2018-09-05T00:31:19.923Z,85.62
2018-09-05T00:32:19.959Z,85.96
2018-09-05T00:33:19.972Z,85.86
2018-09-05T00:34:19.891Z,86.21
2018-09-05T00:35:19.895Z,86.61
2018-09-05T00:36:19.877Z,86.55
2018-09-05T00:37:19.887Z,88.78
2018-09-05T00:38:19.848Z,88.82
2018-09-05T00:39:19.895Z,88.92
2018-09-05T00:40:19.825Z,89.57
2018-09-05T00:41:19.819Z,89.37
2018-09-05T00:42:19.948Z,89.57
2018-09-05T00:43:19.801Z,90.48
2018-09-05T00:44:19.787Z,90.28
2018-09-05T00:45:19.888Z,91.70
2018-09-05T00:46:19.774Z,91.09
2018-09-05T00:47:19.780Z,89.23
2018-09-05T00:48:19.751Z,89.83
2018-09-05T00:49:19.737Z,87.04
2018-09-05T00:50:19.729Z,88.25
2018-09-05T00:51:19.795Z,89.41
2018-09-05T00:52:19.729Z,89.92
2018-09-05T00:53:19.736Z,90.22
2018-09-05T00:54:19.696Z,90.57
2018-09-05T00:55:19.677Z,90.36
2018-09-05T00:56:19.666Z,91.17
2018-09-05T00:57:19.677Z,91.12
2018-09-05T00:58:19.637Z,90.51
2018-09-05T00:59:19.697Z,89.54
2018-09-05T01:00:19.621Z,91.67
2018-09-05T01:01:19.624Z,92.12
2018-09-05T01:02:19.620Z,93.64
2018-09-05T01:03:19.587Z,94.56
2018-09-05T01:04:19.574Z,93.64
2018-09-05T01:05:19.603Z,92.47
2018-09-05T01:06:19.561Z,91.86
2018-09-05T01:07:19.552Z,92.30
2018-09-05T01:08:19.630Z,93.93
2018-09-05T01:09:19.521Z,94.28
2018-09-05T01:10:19.512Z,94.34
2018-09-05T01:11:19.496Z,94.59
2018-09-05T01:12:19.483Z,95.00
2018-09-05T01:13:19.488Z,95.65
2018-09-05T01:14:19.522Z,96.36
2018-09-05T01:15:19.450Z,96.06
2018-09-05T01:16:19.461Z,96.56
2018-09-05T01:17:19.423Z,96.67
2018-09-05T01:18:19.430Z,97.28
2018-09-05T01:19:19.405Z,96.97
2018-09-05T01:20:19.452Z,97.17
2018-09-05T01:21:19.385Z,97.28
2018-09-05T01:22:19.378Z,96.87
2018-09-05T01:23:19.380Z,96.87
2018-09-05T01:24:19.503Z,96.97
2018-09-05T01:25:19.346Z,96.71
2018-09-05T01:26:19.342Z,96.77
2018-09-05T01:27:19.384Z,97.38
2018-09-05T01:28:19.331Z,97.89
2018-09-05T01:29:19.300Z,97.38
2018-09-05T01:30:19.301Z,97.38
2018-09-05T01:31:19.281Z,97.32
2018-09-05T01:32:19.270Z,97.53
2018-09-05T01:33:19.356Z,97.32
2018-09-05T01:34:19.275Z,97.73
2018-09-05T01:35:19.234Z,97.63
2018-09-05T01:36:19.221Z,97.53
2018-09-05T01:37:19.215Z,97.73
2018-09-05T01:38:19.225Z,97.16
2018-09-05T01:39:19.322Z,97.67
2018-09-05T01:40:19.181Z,97.53
2018-09-05T01:41:19.168Z,97.93
2018-09-05T01:42:19.159Z,98.03
2018-09-05T01:43:19.178Z,98.03
2018-09-05T01:44:19.147Z,97.93
2018-09-05T01:45:19.234Z,98.03
2018-09-05T01:46:19.118Z,98.14
2018-09-05T01:47:19.110Z,98.54
2018-09-05T01:48:19.114Z,98.08
2018-09-05T01:49:19.080Z,98.39
2018-09-05T01:50:19.072Z,97.98
2018-09-05T01:51:19.118Z,97.88
2018-09-05T01:52:19.059Z,98.08
2018-09-05T01:53:19.066Z,98.39
2018-09-05T01:54:19.072Z,97.88
2018-09-05T01:55:19.026Z,97.88
2018-09-05T01:56:19.015Z,97.82
2018-09-05T01:57:18.994Z,98.13
2018-09-05T01:58:19.092Z,97.82
2018-09-05T01:59:18.984Z,97.87
2018-09-05T02:00:18.966Z,98.43
2018-09-05T02:01:18.948Z,98.13
2018-09-05T02:02:18.950Z,98.23
2018-09-05T02:03:19.006Z,98.23
2018-09-05T02:04:18.935Z,98.84
2018-09-05T02:05:19.011Z,98.79
2018-09-05T02:06:18.923Z,99.10
2018-09-05T02:07:18.888Z,99.00
2018-09-05T02:08:18.931Z,98.90
2018-09-05T02:09:18.873Z,99.00
2018-09-05T02:10:18.912Z,98.90
2018-09-05T02:11:18.851Z,98.79
2018-09-05T02:12:18.836Z,98.69
2018-09-05T02:13:18.905Z,98.90
2018-09-05T02:14:18.828Z,98.69
2018-09-05T02:15:18.802Z,98.64
2018-09-05T02:16:18.796Z,99.04
2018-09-05T02:17:18.793Z,99.20
2018-09-05T02:18:18.854Z,98.79
2018-09-05T02:19:18.789Z,98.59
2018-09-05T02:20:18.751Z,99.10
2018-09-05T02:21:18.749Z,99.00
2018-09-05T02:22:18.725Z,99.00
2018-09-05T02:23:18.729Z,99.10
2018-09-05T02:24:18.724Z,99.46
2018-09-05T02:25:18.693Z,99.31
2018-09-05T02:26:18.738Z,99.31
2018-09-05T02:27:18.682Z,99.31
2018-09-05T02:28:18.683Z,99.21
2018-09-05T02:29:18.667Z,98.95
2018-09-05T02:30:18.654Z,99.41
2018-09-05T02:31:18.641Z,99.31
2018-09-05T02:32:18.637Z,99.11
2018-09-05T02:33:18.637Z,99.16
2018-09-05T02:34:18.626Z,99.37
2018-09-05T02:35:18.620Z,99.22
2018-09-05T02:36:18.588Z,98.77
2018-09-05T02:37:18.629Z,98.62
2018-09-05T02:38:18.552Z,98.37
2018-09-05T02:39:18.587Z,97.41
2018-09-05T02:40:18.580Z,97.11
2018-09-05T02:41:18.531Z,96.70
2018-09-05T02:42:18.583Z,96.30
2018-09-05T02:43:18.547Z,95.68
2018-09-05T02:44:18.514Z,95.28
2018-09-05T02:45:18.572Z,94.62
2018-09-05T02:46:18.478Z,93.10
2018-09-05T02:47:18.465Z,92.90
2018-09-05T02:48:18.460Z,92.76
2018-09-05T02:49:18.509Z,92.65
2018-09-05T02:50:18.439Z,92.14
2018-09-05T02:51:18.418Z,91.64
2018-09-05T02:52:18.418Z,91.13
2018-09-05T02:53:18.392Z,90.89
2018-09-05T02:54:18.421Z,90.99
2018-09-05T02:55:18.394Z,90.89
2018-09-05T02:56:18.456Z,90.44
2018-09-05T02:57:18.355Z,89.94
2018-09-05T02:58:18.356Z,89.43
2018-09-05T02:59:18.355Z,89.12
2018-09-05T03:00:18.353Z,89.53
2018-09-05T03:01:18.333Z,89.02
2018-09-05T03:02:18.302Z,88.82
2018-09-05T03:03:18.286Z,89.23
2018-09-05T03:04:18.414Z,89.53
2018-09-05T03:05:18.271Z,88.72
2018-09-05T03:06:18.252Z,89.23
2018-09-05T03:07:18.244Z,89.53
2018-09-05T03:08:18.239Z,89.12
2018-09-05T03:09:18.222Z,89.63
2018-09-05T03:10:18.266Z,89.63
2018-09-05T03:11:18.210Z,89.32
2018-09-05T03:12:18.195Z,89.53
2018-09-05T03:13:18.185Z,88.78
2018-09-05T03:14:18.165Z,88.82
2018-09-05T03:15:18.183Z,88.57
2018-09-05T03:16:18.220Z,88.48
2018-09-05T03:17:18.140Z,88.27
2018-09-05T03:18:18.124Z,88.37
2018-09-05T03:19:18.118Z,88.17
2018-09-05T03:20:18.138Z,88.27
2018-09-05T03:21:18.111Z,87.97
2018-09-05T03:22:18.082Z,87.87
2018-09-05T03:23:18.144Z,87.87
2018-09-05T03:24:18.073Z,87.56
2018-09-05T03:25:18.060Z,87.56
2018-09-05T03:26:18.039Z,87.97
2018-09-05T03:27:18.048Z,88.27
2018-09-05T03:28:18.012Z,88.01
2018-09-05T03:29:18.058Z,88.01
2018-09-05T03:30:18.018Z,88.62
2018-09-05T03:31:17.980Z,88.72
2018-09-05T03:32:18.069Z,89.02
2018-09-05T03:33:17.965Z,89.32
2018-09-05T03:34:17.958Z,89.53
2018-09-05T03:35:18.020Z,89.02
2018-09-05T03:36:17.929Z,89.43
2018-09-05T03:37:17.920Z,89.12
2018-09-05T03:38:17.907Z,88.72
2018-09-05T03:39:17.896Z,88.72
2018-09-05T03:40:17.908Z,88.72
2018-09-05T03:41:17.910Z,88.42
2018-09-05T03:42:17.858Z,88.11
2018-09-05T03:43:17.849Z,87.87
2018-09-05T03:44:17.838Z,88.07
2018-09-05T03:45:17.839Z,87.97
2018-09-05T03:46:17.814Z,88.27
2018-09-05T03:47:17.838Z,88.17
2018-09-05T03:48:17.791Z,87.26
2018-09-05T03:49:17.780Z,88.07
2018-09-05T03:50:17.785Z,87.46
2018-09-05T03:51:17.766Z,87.77
2018-09-05T03:52:17.748Z,87.97
2018-09-05T03:53:17.773Z,88.17
2018-09-05T03:54:17.727Z,87.36
2018-09-05T03:55:17.735Z,87.97
2018-09-05T03:56:17.707Z,88.07
2018-09-05T03:57:17.699Z,87.36
2018-09-05T03:58:17.682Z,88.17
2018-09-05T03:59:17.714Z,87.77
2018-09-05T04:00:17.675Z,88.11
2018-09-05T04:01:17.649Z,88.21
2018-09-05T04:02:17.663Z,88.11
2018-09-05T04:03:17.630Z,88.42
2018-09-05T04:04:17.618Z,88.11
2018-09-05T04:05:17.664Z,88.21
2018-09-05T04:06:17.640Z,88.51
2018-09-05T04:07:17.681Z,89.23
2018-09-05T04:08:17.574Z,89.37
2018-09-05T04:09:17.564Z,89.47
2018-09-05T04:10:17.613Z,89.17
2018-09-05T04:11:17.583Z,89.57
2018-09-05T04:12:17.600Z,89.57
2018-09-05T04:13:17.521Z,89.77
2018-09-05T04:14:17.510Z,89.67
2018-09-05T04:15:17.517Z,89.57
2018-09-05T04:16:17.486Z,89.47
2018-09-05T04:17:17.505Z,88.96
2018-09-05T04:18:17.470Z,88.96
2018-09-05T04:19:17.459Z,89.17
2018-09-05T04:20:17.503Z,88.96
2018-09-05T04:21:17.438Z,89.17
2018-09-05T04:22:17.422Z,88.72
2018-09-05T04:23:17.431Z,89.02
2018-09-05T04:24:17.401Z,88.82
2018-09-05T04:25:17.391Z,88.51
2018-09-05T04:26:17.395Z,88.62
2018-09-05T04:27:17.369Z,88.21
2018-09-05T04:28:17.359Z,88.11
2018-09-05T04:29:17.371Z,88.21
2018-09-05T04:30:17.341Z,88.01
2018-09-05T04:31:17.352Z,87.91
2018-09-05T04:32:17.313Z,88.31
2018-09-05T04:33:17.303Z,88.11
2018-09-05T04:34:17.295Z,88.42
2018-09-05T04:35:17.320Z,88.21
2018-09-05T04:36:17.286Z,88.31
2018-09-05T04:37:17.261Z,88.01
2018-09-05T04:38:17.251Z,87.60
2018-09-05T04:39:17.241Z,88.31
2018-09-05T04:40:17.230Z,88.21
2018-09-05T04:41:17.280Z,88.31
2018-09-05T04:42:17.207Z,88.42
2018-09-05T04:43:17.194Z,88.92
2018-09-05T04:44:17.187Z,88.96
2018-09-05T04:45:17.301Z,88.76
2018-09-05T04:46:17.179Z,89.57
2018-09-05T04:47:17.198Z,88.96
2018-09-05T04:48:17.192Z,88.96
2018-09-05T04:49:17.155Z,89.51
2018-09-05T04:50:17.120Z,89.01
2018-09-05T04:51:17.163Z,90.02
2018-09-05T04:52:17.099Z,90.42
2018-09-05T04:53:17.119Z,90.32
2018-09-05T04:54:17.076Z,90.36
2018-09-05T04:55:17.066Z,90.32
2018-09-05T04:56:17.073Z,90.22
2018-09-05T04:57:17.055Z,91.08
2018-09-05T04:58:17.066Z,90.42
2018-09-05T04:59:17.090Z,90.32
2018-09-05T05:00:17.017Z,90.42
2018-09-05T05:01:17.020Z,89.92
2018-09-05T05:02:16.993Z,90.42
2018-09-05T05:03:16.983Z,90.32
2018-09-05T05:04:16.969Z,90.47
2018-09-05T05:05:17.000Z,90.57
2018-09-05T05:06:16.968Z,90.51
2018-09-05T05:07:16.998Z,90.71
2018-09-05T05:08:16.928Z,91.06
2018-09-05T05:09:16.919Z,91.47
2018-09-05T05:10:16.952Z,92.12
2018-09-05T05:11:16.946Z,92.12
2018-09-05T05:12:16.930Z,92.32
2018-09-05T05:13:16.875Z,92.42
2018-09-05T05:14:16.865Z,92.57
2018-09-05T05:15:16.857Z,92.77
2018-09-05T05:16:16.847Z,92.77
2018-09-05T05:17:16.848Z,93.12
2018-09-05T05:18:16.875Z,92.71
2018-09-05T05:19:16.813Z,92.71
2018-09-05T05:20:16.805Z,93.47
2018-09-05T05:21:16.790Z,93.87
2018-09-05T05:22:16.796Z,93.37
2018-09-05T05:23:16.770Z,94.48
2018-09-05T05:24:16.803Z,93.67
2018-09-05T05:25:16.750Z,95.00
2018-09-05T05:26:16.739Z,95.70
2018-09-05T05:27:16.745Z,96.62
2018-09-05T05:28:16.715Z,96.72
2018-09-05T05:29:16.708Z,96.31
2018-09-05T05:30:16.730Z,96.17
2018-09-05T05:31:16.686Z,95.97
2018-09-05T05:32:16.689Z,96.07
2018-09-05T05:33:16.663Z,95.97
2018-09-05T05:34:16.653Z,95.97
2018-09-05T05:35:16.641Z,95.51
2018-09-05T05:36:16.666Z,95.01
2018-09-05T05:37:16.633Z,95.10
2018-09-05T05:38:16.611Z,95.36
2018-09-05T05:39:16.599Z,95.82
2018-09-05T05:40:16.615Z,95.72
2018-09-05T05:41:16.581Z,96.12
2018-09-05T05:42:16.619Z,95.41
2018-09-05T05:43:16.557Z,95.31
2018-09-05T05:44:16.548Z,94.90
2018-09-05T05:45:16.535Z,94.20
2018-09-05T05:46:16.527Z,94.70
2018-09-05T05:47:16.531Z,94.29
2018-09-05T05:48:16.534Z,94.60
2018-09-05T05:49:16.493Z,95.17
2018-09-05T05:50:16.481Z,95.17
2018-09-05T05:51:16.474Z,94.71
2018-09-05T05:52:16.517Z,95.02
2018-09-05T05:53:16.449Z,94.92
2018-09-05T05:54:16.467Z,95.12
2018-09-05T05:55:16.429Z,94.57
2018-09-05T05:56:16.421Z,93.65
2018-09-05T05:57:16.421Z,93.35
2018-09-05T05:58:16.395Z,93.41
2018-09-05T05:59:16.389Z,93.61
2018-09-05T06:00:16.395Z,92.76
2018-09-05T06:01:16.477Z,92.47
2018-09-05T06:02:16.367Z,90.30
2018-09-05T06:03:16.348Z,90.05
2018-09-05T06:04:16.333Z,89.01
2018-09-05T06:05:16.322Z,84.69
2018-09-05T06:06:16.488Z,83.70
2018-09-05T06:07:16.387Z,80.04
2018-09-05T06:08:16.292Z,78.05
2018-09-05T06:09:16.281Z,77.50
2018-09-05T06:10:16.269Z,76.87
2018-09-05T06:11:16.256Z,76.03
2018-09-05T06:12:16.243Z,75.42
2018-09-05T06:13:16.295Z,74.68
2018-09-05T06:14:16.223Z,74.55
2018-09-05T06:15:16.213Z,73.61
2018-09-05T06:16:16.203Z,72.03
2018-09-05T06:17:16.194Z,70.89
2018-09-05T06:18:16.224Z,70.46
2018-09-05T06:19:16.215Z,69.56
2018-09-05T06:20:16.159Z,71.26
2018-09-05T06:21:16.148Z,69.49
2018-09-05T06:22:16.139Z,70.79
2018-09-05T06:23:16.140Z,70.59
2018-09-05T06:24:16.118Z,71.13
2018-09-05T06:25:16.124Z,70.43
2018-09-05T06:26:16.097Z,71.53
2018-09-05T06:27:16.083Z,70.63
2018-09-05T06:28:16.092Z,70.79
2018-09-05T06:29:16.061Z,70.86
2018-09-05T06:30:16.065Z,69.73
2018-09-05T06:31:16.375Z,69.76
2018-09-05T06:32:16.035Z,67.36
2018-09-05T06:33:16.028Z,68.59
2018-09-05T06:34:16.067Z,67.89
2018-09-05T06:35:15.996Z,69.42
2018-09-05T06:36:15.984Z,69.62
2018-09-05T06:37:16.006Z,69.82
2018-09-05T06:38:15.987Z,69.23
2018-09-05T06:39:15.951Z,69.42
2018-09-05T06:40:15.943Z,68.29
2018-09-05T06:41:15.929Z,68.26
2018-09-05T06:42:15.919Z,68.55
2018-09-05T06:43:15.958Z,66.36
2018-09-05T06:44:15.901Z,68.23
2018-09-05T06:45:15.893Z,68.19
2018-09-05T06:46:15.881Z,66.59
2018-09-05T06:47:15.876Z,66.89
2018-09-05T06:48:15.869Z,65.36
2018-09-05T06:49:15.889Z,65.99
2018-09-05T06:50:15.833Z,65.06
2018-09-05T06:51:15.857Z,67.26
2018-09-05T06:52:15.812Z,65.60
2018-09-05T06:53:15.813Z,64.97
2018-09-05T06:54:15.787Z,64.34
2018-09-05T06:55:15.850Z,62.38
2018-09-05T06:56:15.766Z,62.94
2018-09-05T06:57:15.759Z,63.11
2018-09-05T06:58:15.785Z,62.08
2018-09-05T06:59:15.739Z,61.66
2018-09-05T07:00:15.766Z,61.06
2018-09-05T07:01:15.747Z,61.06
2018-09-05T07:02:15.705Z,59.51
2018-09-05T07:03:15.709Z,59.61
2018-09-05T07:04:15.683Z,59.51
2018-09-05T07:05:15.672Z,59.94
2018-09-05T07:06:15.661Z,61.72
2018-09-05T07:07:15.675Z,60.59
2018-09-05T07:08:15.656Z,61.25
2018-09-05T07:09:15.644Z,60.76
2018-09-05T07:10:15.627Z,58.94
2018-09-05T07:11:15.606Z,60.24
2018-09-05T07:12:15.598Z,61.72
2018-09-05T07:13:15.733Z,60.90
2018-09-05T07:14:15.653Z,59.08
2018-09-05T07:15:15.572Z,59.08
2018-09-05T07:16:15.552Z,58.81
2018-09-05T07:17:15.542Z,59.38
2018-09-05T07:18:15.592Z,59.08
2018-09-05T07:19:15.535Z,59.15
2018-09-05T07:20:15.537Z,58.33
2018-09-05T07:21:15.574Z,57.31
2018-09-05T07:22:15.487Z,56.66
2018-09-05T07:23:15.476Z,56.34
2018-09-05T07:24:15.484Z,56.36
2018-09-05T07:25:15.456Z,56.73
2018-09-05T07:26:15.481Z,57.48
2018-09-05T07:27:15.432Z,57.18
2018-09-05T07:28:15.423Z,55.04
2018-09-05T07:29:15.429Z,54.77
2018-09-05T07:30:15.412Z,56.78
2018-09-05T07:31:15.391Z,56.61
2018-09-05T07:32:15.408Z,58.18
2018-09-05T07:33:15.369Z,58.78
2018-09-05T07:34:15.373Z,60.68
2018-09-05T07:35:15.348Z,58.18
2018-09-05T07:36:15.341Z,59.68
2018-09-05T07:37:15.326Z,60.00
2018-09-05T07:38:15.353Z,59.38
2018-09-05T07:39:15.322Z,60.24
2018-09-05T07:40:15.299Z,59.44
2018-09-05T07:41:15.283Z,59.53
2018-09-05T07:42:15.272Z,60.77
2018-09-05T07:43:15.261Z,60.57
2018-09-05T07:44:15.310Z,59.12
2018-09-05T07:45:15.241Z,57.70
2018-09-05T07:46:15.230Z,56.68
2018-09-05T07:47:15.219Z,57.08
2018-09-05T07:48:15.212Z,56.63
2018-09-05T07:49:15.226Z,55.79
2018-09-05T07:50:15.219Z,58.60
2018-09-05T07:51:15.176Z,58.17
2018-09-05T07:52:15.200Z,59.45
2018-09-05T07:53:15.155Z,58.28
2018-09-05T07:54:15.144Z,59.78
2018-09-05T07:55:15.200Z,58.20
2018-09-05T07:56:15.150Z,55.79
2018-09-05T07:57:15.161Z,56.95
2018-09-05T07:58:15.100Z,57.20
2018-09-05T07:59:15.090Z,57.57
2018-09-05T08:00:15.093Z,54.20
2018-09-05T08:01:15.070Z,54.67
2018-09-05T08:02:15.090Z,54.94
2018-09-05T08:03:15.049Z,54.87
2018-09-05T08:04:15.036Z,57.41
2018-09-05T08:05:15.041Z,57.38
2018-09-05T08:06:15.016Z,57.48
2018-09-05T08:07:15.006Z,56.59
2018-09-05T08:08:15.021Z,59.92
2018-09-05T08:09:14.991Z,57.34
2018-09-05T08:10:14.991Z,59.89
2018-09-05T08:11:14.962Z,57.73
2018-09-05T08:12:14.956Z,57.60
2018-09-05T08:13:14.942Z,58.97
2018-09-05T08:14:14.961Z,57.11
2018-09-05T08:15:14.934Z,56.29
2018-09-05T08:16:14.906Z,57.55
2018-09-05T08:17:14.897Z,58.59
2018-09-05T08:18:15.036Z,57.46
2018-09-05T08:19:14.877Z,54.64
2018-09-05T08:20:14.906Z,54.54
2018-09-05T08:21:14.856Z,56.68
2018-09-05T08:22:14.844Z,53.92
2018-09-05T08:23:14.834Z,56.63
2018-09-05T08:24:14.892Z,56.04
2018-09-05T08:25:14.849Z,54.75
2018-09-05T08:26:14.883Z,54.42
2018-09-05T08:27:14.796Z,55.11
2018-09-05T08:28:14.789Z,54.05
2018-09-05T08:29:14.857Z,52.96
2018-09-05T08:30:14.771Z,55.91
2018-09-05T08:31:14.748Z,53.80
2018-09-05T08:32:14.765Z,55.63
2018-09-05T08:33:14.727Z,53.92
2018-09-05T08:34:14.755Z,53.65
2018-09-05T08:35:14.896Z,51.97
2018-09-05T08:36:14.927Z,53.97
2018-09-05T08:37:14.848Z,53.40
2018-09-05T08:38:14.755Z,54.17
2018-09-05T08:39:14.665Z,52.12
2018-09-05T08:40:14.704Z,52.24
2018-09-05T08:41:14.685Z,53.67
2018-09-05T08:42:14.655Z,55.26
2018-09-05T08:43:14.687Z,53.31
2018-09-05T08:44:14.802Z,53.08
2018-09-05T08:45:14.807Z,52.34
2018-09-05T08:46:14.646Z,53.35
2018-09-05T08:47:14.629Z,53.75
2018-09-05T08:48:14.668Z,52.34
2018-09-05T08:49:14.566Z,53.18
2018-09-05T08:50:14.633Z,53.08
2018-09-05T08:51:14.573Z,53.30
2018-09-05T08:52:14.566Z,53.06
2018-09-05T08:53:14.518Z,53.80
2018-09-05T08:54:14.531Z,53.89
2018-09-05T08:55:14.578Z,51.72
2018-09-05T08:56:14.504Z,55.87
2018-09-05T08:57:14.503Z,51.92
2018-09-05T08:58:14.463Z,54.27
2018-09-05T08:59:14.521Z,50.12
2018-09-05T09:00:14.442Z,55.30
2018-09-05T09:01:14.443Z,52.81
2018-09-05T09:02:14.465Z,53.30
2018-09-05T09:03:14.425Z,51.28
2018-09-05T09:04:14.409Z,53.10
2018-09-05T09:05:14.451Z,49.79
2018-09-05T09:06:14.426Z,51.07
2018-09-05T09:07:14.379Z,52.98
2018-09-05T09:08:14.369Z,53.89
2018-09-05T09:09:14.368Z,50.29
2018-09-05T09:10:14.349Z,50.43
2018-09-05T09:11:14.434Z,50.93
2018-09-05T09:12:14.350Z,52.91
2018-09-05T09:13:14.304Z,54.61
2018-09-05T09:14:14.313Z,54.61
2018-09-05T09:15:14.300Z,52.21
2018-09-05T09:16:14.313Z,50.90
2018-09-05T09:17:14.291Z,53.05
2018-09-05T09:18:14.253Z,52.66
2018-09-05T09:19:14.266Z,49.38
2018-09-05T09:20:14.259Z,50.56
2018-09-05T09:21:14.246Z,51.20
2018-09-05T09:22:14.213Z,51.50
2018-09-05T09:23:14.199Z,52.51
2018-09-05T09:24:14.191Z,51.65
2018-09-05T09:25:14.195Z,52.95
2018-09-05T09:26:14.202Z,50.24
2018-09-05T09:27:14.193Z,50.59
2018-09-05T09:28:14.232Z,51.18
2018-09-05T09:29:14.155Z,49.96
2018-09-05T09:30:14.131Z,50.12
2018-09-05T09:31:14.215Z,51.52
2018-09-05T09:32:14.164Z,53.35
2018-09-05T09:33:14.098Z,51.72
2018-09-05T09:34:14.107Z,51.30
2018-09-05T09:35:14.114Z,52.73
2018-09-05T09:36:14.067Z,49.79
2018-09-05T09:37:14.102Z,49.38
2018-09-05T09:38:14.045Z,50.14
2018-09-05T09:39:14.035Z,46.67
2018-09-05T09:40:14.025Z,48.22
2018-09-05T09:41:14.014Z,47.06
2018-09-05T09:42:14.027Z,48.07
2018-09-05T09:43:14.063Z,53.61
2018-09-05T09:44:14.003Z,51.62
2018-09-05T09:45:13.972Z,49.62
2018-09-05T09:46:13.967Z,46.28
2018-09-05T09:47:14.029Z,49.23
2018-09-05T09:48:13.955Z,48.29
2018-09-05T09:49:13.942Z,49.55
2018-09-05T09:50:13.928Z,47.68
2018-09-05T09:51:13.952Z,48.57
2018-09-05T09:52:13.923Z,49.60
2018-09-05T09:53:13.923Z,46.84
2018-09-05T09:54:13.884Z,47.91
2018-09-05T09:55:13.887Z,45.05
2018-09-05T09:56:13.888Z,49.28
2018-09-05T09:57:13.891Z,45.19
2018-09-05T09:58:13.842Z,51.00
2018-09-05T09:59:13.830Z,49.90
2018-09-05T10:00:13.841Z,47.31
2018-09-05T10:01:13.893Z,46.72
2018-09-05T10:02:13.817Z,46.82
2018-09-05T10:03:13.801Z,48.22
2018-09-05T10:04:13.783Z,49.90
2018-09-05T10:05:13.798Z,48.39
2018-09-05T10:06:13.760Z,45.81
2018-09-05T10:07:13.817Z,47.14
2018-09-05T10:08:13.744Z,47.66
2018-09-05T10:09:13.732Z,49.38
2018-09-05T10:10:13.921Z,47.01
2018-09-05T10:11:13.746Z,48.25
2018-09-05T10:12:13.715Z,47.73
2018-09-05T10:13:13.695Z,49.75
2018-09-05T10:14:13.678Z,49.90
2018-09-05T10:15:13.669Z,48.81
2018-09-05T10:16:13.660Z,50.95
2018-09-05T10:17:13.789Z,52.53
2018-09-05T10:18:13.659Z,48.00
2018-09-05T10:19:13.631Z,50.90
2018-09-05T10:20:13.619Z,48.32
2018-09-05T10:21:13.609Z,46.43
2018-09-05T10:22:13.603Z,45.50
2018-09-05T10:23:13.606Z,45.67
2018-09-05T10:24:13.615Z,45.28
2018-09-05T10:25:13.574Z,44.30
2018-09-05T10:26:13.560Z,47.98
2018-09-05T10:27:13.555Z,48.13
2018-09-05T10:28:13.556Z,44.80
2018-09-05T10:29:13.532Z,44.76
2018-09-05T10:30:13.540Z,45.84
2018-09-05T10:31:13.520Z,48.10
2018-09-05T10:32:13.516Z,45.39
2018-09-05T10:33:13.532Z,45.14
2018-09-05T10:34:13.482Z,46.15
2018-09-05T10:35:13.472Z,46.22
2018-09-05T10:36:13.459Z,47.01
2018-09-05T10:37:13.450Z,49.85
2018-09-05T10:38:13.455Z,48.32
2018-09-05T10:39:13.435Z,46.77
2018-09-05T10:40:13.497Z,47.23
2018-09-05T10:41:13.440Z,49.35
2018-09-05T10:42:13.401Z,46.97
2018-09-05T10:43:13.568Z,47.75
2018-09-05T10:44:13.476Z,48.89
2018-09-05T10:45:13.373Z,47.71
2018-09-05T10:46:13.364Z,49.46
2018-09-05T10:47:13.369Z,46.66
2018-09-05T10:48:13.403Z,44.87
2018-09-05T10:49:13.352Z,42.72
2018-09-05T10:50:13.335Z,42.41
2018-09-05T10:51:13.407Z,43.61
2018-09-05T10:52:13.314Z,43.41
2018-09-05T10:53:13.318Z,44.10
2018-09-05T10:54:13.306Z,47.15
2018-09-05T10:55:13.282Z,43.93
2018-09-05T10:56:13.445Z,49.33
2018-09-05T10:57:13.279Z,44.76
2018-09-05T10:58:13.309Z,46.23
2018-09-05T10:59:13.303Z,46.25
2018-09-05T11:00:13.231Z,46.13
2018-09-05T11:01:13.227Z,46.33
2018-09-05T11:02:13.294Z,49.01
2018-09-05T11:03:13.234Z,44.85
2018-09-05T11:04:13.242Z,47.86
2018-09-05T11:05:13.198Z,44.30
2018-09-05T11:06:13.199Z,42.98
2018-09-05T11:07:13.175Z,48.96
2018-09-05T11:08:13.150Z,43.57
2018-09-05T11:09:13.174Z,44.58
2018-09-05T11:10:13.169Z,48.64
2018-09-05T11:11:13.119Z,45.67
2018-09-05T11:12:13.111Z,44.31
2018-09-05T11:13:13.101Z,47.36
2018-09-05T11:14:13.108Z,45.84
2018-09-05T11:15:13.091Z,50.24
2018-09-05T11:16:13.083Z,45.48
2018-09-05T11:17:13.076Z,43.19
2018-09-05T11:18:13.054Z,45.73
2018-09-05T11:19:13.059Z,42.71
2018-09-05T11:20:13.040Z,45.20
2018-09-05T11:21:13.076Z,46.85
2018-09-05T11:22:13.017Z,46.56
2018-09-05T11:23:13.016Z,44.10
2018-09-05T11:24:13.102Z,44.77
2018-09-05T11:25:13.188Z,44.37
2018-09-05T11:26:12.979Z,44.18
2018-09-05T11:27:12.971Z,43.39
2018-09-05T11:28:13.024Z,44.32
2018-09-05T11:29:12.984Z,44.95
2018-09-05T11:30:12.952Z,49.40
2018-09-05T11:31:12.941Z,48.52
2018-09-05T11:32:12.955Z,48.59
2018-09-05T11:33:12.934Z,45.96
2018-09-05T11:34:12.926Z,49.82
2018-09-05T11:35:12.909Z,49.92
2018-09-05T11:36:12.879Z,47.61
2018-09-05T11:37:12.904Z,47.88
2018-09-05T11:38:12.861Z,49.46
2018-09-05T11:39:12.862Z,50.44
2018-09-05T11:40:12.870Z,44.05
2018-09-05T11:41:12.830Z,47.66
2018-09-05T11:42:12.819Z,48.13
2018-09-05T11:43:12.809Z,46.94
2018-09-05T11:44:12.831Z,46.08
2018-09-05T11:45:12.816Z,49.50
2018-09-05T11:46:12.780Z,48.99
2018-09-05T11:47:12.779Z,45.35
2018-09-05T11:48:12.758Z,45.03
2018-09-05T11:49:12.778Z,44.91
2018-09-05T11:50:12.757Z,44.66
2018-09-05T11:51:12.763Z,47.04
2018-09-05T11:52:12.718Z,45.78
2018-09-05T11:53:12.707Z,45.41
2018-09-05T11:54:12.699Z,45.90
2018-09-05T11:55:12.703Z,45.88
2018-09-05T11:56:12.677Z,45.12
2018-09-05T11:57:12.741Z,46.34
2018-09-05T11:58:12.656Z,48.07
2018-09-05T11:59:12.645Z,50.71
2018-09-05T12:00:12.648Z,51.67
2018-09-05T12:01:12.631Z,49.48
2018-09-05T12:02:12.657Z,46.99
2018-09-05T12:03:12.628Z,51.99
2018-09-05T12:04:12.621Z,48.25
2018-09-05T12:05:12.600Z,45.59
2018-09-05T12:06:12.575Z,48.17
2018-09-05T12:07:12.630Z,50.16
2018-09-05T12:08:12.555Z,49.57
2018-09-05T12:09:12.577Z,47.80
2018-09-05T12:10:12.548Z,48.49
2018-09-05T12:11:12.523Z,49.48
2018-09-05T12:12:12.570Z,52.83
2018-09-05T12:13:12.503Z,49.57
2018-09-05T12:14:12.492Z,50.76
2018-09-05T12:15:12.517Z,52.53
2018-09-05T12:16:12.471Z,51.64
2018-09-05T12:17:12.460Z,49.90
2018-09-05T12:18:12.451Z,48.32
2018-09-05T12:19:12.439Z,47.82
2018-09-05T12:20:12.478Z,47.06
2018-09-05T12:21:12.444Z,49.57
2018-09-05T12:22:12.412Z,50.29
2018-09-05T12:23:12.400Z,50.95
2018-09-05T12:24:12.392Z,51.84
2018-09-05T12:25:12.400Z,53.00
2018-09-05T12:26:12.368Z,49.77
2018-09-05T12:27:12.383Z,48.80
2018-09-05T12:28:12.382Z,48.61
2018-09-05T12:29:12.337Z,50.51
2018-09-05T12:30:12.343Z,50.93
2018-09-05T12:31:12.318Z,49.72
2018-09-05T12:32:12.307Z,50.21
2018-09-05T12:33:12.297Z,50.90
2018-09-05T12:34:12.313Z,49.89
2018-09-05T12:35:12.292Z,51.03
2018-09-05T12:36:12.267Z,48.75
2018-09-05T12:37:12.257Z,48.86
2018-09-05T12:38:12.299Z,49.13
2018-09-05T12:39:12.233Z,49.74
2018-09-05T12:40:12.274Z,48.46
2018-09-05T12:41:12.213Z,50.24
2018-09-05T12:42:12.205Z,49.45
2018-09-05T12:43:12.193Z,48.56
2018-09-05T12:44:12.185Z,50.04
2018-09-05T12:45:12.176Z,48.09
2018-09-05T12:46:12.184Z,48.51
2018-09-05T12:47:12.277Z,51.18
2018-09-05T12:48:12.153Z,50.71
2018-09-05T12:49:12.175Z,51.30
2018-09-05T12:50:12.119Z,48.51
2018-09-05T12:51:12.150Z,50.19
2018-09-05T12:52:12.110Z,50.68